sensor_id;sensor_type;location;lat;lon;timestamp;P1;durP1;ratioP1;P2;durP2;ratioP2
65387;SDS011;51992;53.528;49.474;2022-08-01T00:01:55;40.22;;;20.73;;
65387;SDS011;51992;53.528;49.474;2022-08-01T00:04:20;38.42;;;19.20;;
65387;SDS011;51992;53.528;49.474;2022-08-01T00:06:46;37.25;;;19.90;;
65387;SDS011;51992;53.528;49.474;2022-08-01T00:09:12;38.10;;;19.60;;
65387;SDS011;51992;53.528;49.474;2022-08-01T00:11:38;35.75;;;19.65;;
65387;SDS011;51992;53.528;49.474;2022-08-01T00:14:03;40.22;;;21.35;;
65387;SDS011;51992;53.528;49.474;2022-08-01T00:16:29;38.58;;;21.63;;
65387;SDS011;51992;53.528;49.474;2022-08-01T00:18:55;44.35;;;22.80;;
65387;SDS011;51992;53.528;49.474;2022-08-01T00:21:21;52.78;;;24.83;;
65387;SDS011;51992;53.528;49.474;2022-08-01T00:23:47;46.00;;;25.08;;
65387;SDS011;51992;53.528;49.474;2022-08-01T00:26:13;57.13;;;26.00;;
65387;SDS011;51992;53.528;49.474;2022-08-01T00:28:39;52.40;;;26.55;;
65387;SDS011;51992;53.528;49.474;2022-08-01T00:31:04;54.13;;;27.02;;
65387;SDS011;51992;53.528;49.474;2022-08-01T00:33:30;49.88;;;24.27;;
65387;SDS011;51992;53.528;49.474;2022-08-01T00:35:56;49.55;;;25.85;;
65387;SDS011;51992;53.528;49.474;2022-08-01T00:38:22;44.85;;;23.15;;
65387;SDS011;51992;53.528;49.474;2022-08-01T00:40:48;46.70;;;23.67;;
65387;SDS011;51992;53.528;49.474;2022-08-01T00:43:14;41.75;;;21.90;;
65387;SDS011;51992;53.528;49.474;2022-08-01T00:45:40;35.25;;;18.58;;
65387;SDS011;51992;53.528;49.474;2022-08-01T00:48:05;32.17;;;17.77;;
65387;SDS011;51992;53.528;49.474;2022-08-01T00:50:32;38.58;;;19.83;;
65387;SDS011;51992;53.528;49.474;2022-08-01T00:52:58;27.92;;;15.85;;
65387;SDS011;51992;53.528;49.474;2022-08-01T00:55:24;18.10;;;13.48;;
65387;SDS011;51992;53.528;49.474;2022-08-01T00:57:50;18.55;;;13.40;;
65387;SDS011;51992;53.528;49.474;2022-08-01T01:00:16;19.83;;;12.65;;
65387;SDS011;51992;53.528;49.474;2022-08-01T01:02:42;24.60;;;12.88;;
65387;SDS011;51992;53.528;49.474;2022-08-01T01:05:09;17.70;;;12.68;;
65387;SDS011;51992;53.528;49.474;2022-08-01T01:07:53;18.33;;;12.23;;
65387;SDS011;51992;53.528;49.474;2022-08-01T01:10:22;18.77;;;12.50;;
65387;SDS011;51992;53.528;49.474;2022-08-01T01:13:13;18.90;;;12.25;;
65387;SDS011;51992;53.528;49.474;2022-08-01T01:15:39;16.75;;;11.75;;
65387;SDS011;51992;53.528;49.474;2022-08-01T01:20:36;36.85;;;20.13;;
65387;SDS011;51992;53.528;49.474;2022-08-01T01:23:19;47.42;;;21.92;;
65387;SDS011;51992;53.528;49.474;2022-08-01T01:33:19;43.78;;;22.60;;
65387;SDS011;51992;53.528;49.474;2022-08-01T01:35:46;47.53;;;23.50;;
65387;SDS011;51992;53.528;49.474;2022-08-01T01:38:24;53.92;;;26.40;;
65387;SDS011;51992;53.528;49.474;2022-08-01T01:40:51;48.22;;;24.90;;
65387;SDS011;51992;53.528;49.474;2022-08-01T01:43:17;56.33;;;27.38;;
65387;SDS011;51992;53.528;49.474;2022-08-01T01:45:44;55.63;;;28.02;;
65387;SDS011;51992;53.528;49.474;2022-08-01T01:48:12;60.60;;;27.10;;
65387;SDS011;51992;53.528;49.474;2022-08-01T01:50:39;58.20;;;25.67;;
65387;SDS011;51992;53.528;49.474;2022-08-01T01:53:05;49.25;;;24.33;;
65387;SDS011;51992;53.528;49.474;2022-08-01T01:55:31;67.93;;;27.33;;
65387;SDS011;51992;53.528;49.474;2022-08-01T01:57:58;70.10;;;31.90;;
65387;SDS011;51992;53.528;49.474;2022-08-01T02:00:24;92.82;;;42.35;;
65387;SDS011;51992;53.528;49.474;2022-08-01T02:02:50;99.65;;;45.13;;
65387;SDS011;51992;53.528;49.474;2022-08-01T02:05:17;95.13;;;42.15;;
65387;SDS011;51992;53.528;49.474;2022-08-01T02:07:43;89.68;;;41.33;;
65387;SDS011;51992;53.528;49.474;2022-08-01T02:10:09;69.32;;;34.30;;
65387;SDS011;51992;53.528;49.474;2022-08-01T02:12:36;71.32;;;35.47;;
65387;SDS011;51992;53.528;49.474;2022-08-01T02:15:03;68.47;;;32.33;;
65387;SDS011;51992;53.528;49.474;2022-08-01T02:17:29;61.28;;;32.63;;
65387;SDS011;51992;53.528;49.474;2022-08-01T02:19:55;64.85;;;30.50;;
65387;SDS011;51992;53.528;49.474;2022-08-01T02:22:42;61.33;;;29.67;;
65387;SDS011;51992;53.528;49.474;2022-08-01T02:30:17;113.45;;;53.45;;
65387;SDS011;51992;53.528;49.474;2022-08-01T02:32:44;108.85;;;55.35;;
65387;SDS011;51992;53.528;49.474;2022-08-01T02:35:12;115.10;;;52.53;;
65387;SDS011;51992;53.528;49.474;2022-08-01T02:37:39;112.45;;;52.97;;
65387;SDS011;51992;53.528;49.474;2022-08-01T02:40:06;111.90;;;53.97;;
65387;SDS011;51992;53.528;49.474;2022-08-01T02:42:33;98.72;;;48.13;;
65387;SDS011;51992;53.528;49.474;2022-08-01T02:45:00;94.35;;;46.00;;
65387;SDS011;51992;53.528;49.474;2022-08-01T02:47:27;81.53;;;43.08;;
65387;SDS011;51992;53.528;49.474;2022-08-01T02:49:54;85.90;;;40.00;;
65387;SDS011;51992;53.528;49.474;2022-08-01T02:52:21;73.72;;;33.25;;
65387;SDS011;51992;53.528;49.474;2022-08-01T02:54:49;53.65;;;24.55;;
65387;SDS011;51992;53.528;49.474;2022-08-01T02:57:16;58.05;;;26.73;;
65387;SDS011;51992;53.528;49.474;2022-08-01T02:59:43;53.05;;;25.20;;
65387;SDS011;51992;53.528;49.474;2022-08-01T03:02:09;53.28;;;24.25;;
65387;SDS011;51992;53.528;49.474;2022-08-01T03:04:36;58.97;;;23.42;;
65387;SDS011;51992;53.528;49.474;2022-08-01T03:07:03;46.47;;;20.40;;
65387;SDS011;51992;53.528;49.474;2022-08-01T03:09:30;41.70;;;19.45;;
65387;SDS011;51992;53.528;49.474;2022-08-01T03:11:58;49.80;;;18.98;;
65387;SDS011;51992;53.528;49.474;2022-08-01T03:14:24;45.60;;;19.83;;
65387;SDS011;51992;53.528;49.474;2022-08-01T03:16:50;59.38;;;22.98;;
65387;SDS011;51992;53.528;49.474;2022-08-01T03:19:17;59.03;;;25.63;;
65387;SDS011;51992;53.528;49.474;2022-08-01T03:21:43;65.70;;;30.15;;
65387;SDS011;51992;53.528;49.474;2022-08-01T03:24:10;82.63;;;34.95;;
65387;SDS011;51992;53.528;49.474;2022-08-01T03:26:36;67.88;;;34.17;;
65387;SDS011;51992;53.528;49.474;2022-08-01T03:29:04;69.20;;;32.45;;
65387;SDS011;51992;53.528;49.474;2022-08-01T03:31:34;68.65;;;29.10;;
65387;SDS011;51992;53.528;49.474;2022-08-01T03:34:01;98.95;;;41.20;;
65387;SDS011;51992;53.528;49.474;2022-08-01T03:36:27;107.10;;;49.28;;
65387;SDS011;51992;53.528;49.474;2022-08-01T03:38:55;93.25;;;44.08;;
65387;SDS011;51992;53.528;49.474;2022-08-01T03:41:22;106.07;;;48.45;;
65387;SDS011;51992;53.528;49.474;2022-08-01T03:43:52;108.35;;;47.58;;
65387;SDS011;51992;53.528;49.474;2022-08-01T03:46:20;72.00;;;33.65;;
65387;SDS011;51992;53.528;49.474;2022-08-01T03:48:48;98.32;;;38.40;;
65387;SDS011;51992;53.528;49.474;2022-08-01T03:51:14;50.35;;;23.25;;
65387;SDS011;51992;53.528;49.474;2022-08-01T03:53:41;50.72;;;25.50;;
65387;SDS011;51992;53.528;49.474;2022-08-01T03:56:07;70.18;;;34.13;;
65387;SDS011;51992;53.528;49.474;2022-08-01T03:58:34;69.97;;;30.90;;
65387;SDS011;51992;53.528;49.474;2022-08-01T04:01:00;66.82;;;35.28;;
65387;SDS011;51992;53.528;49.474;2022-08-01T04:03:26;51.20;;;26.08;;
65387;SDS011;51992;53.528;49.474;2022-08-01T04:05:52;44.85;;;19.23;;
65387;SDS011;51992;53.528;49.474;2022-08-01T04:08:18;56.05;;;20.27;;
65387;SDS011;51992;53.528;49.474;2022-08-01T04:10:44;45.45;;;21.38;;
65387;SDS011;51992;53.528;49.474;2022-08-01T04:13:10;63.15;;;24.73;;
65387;SDS011;51992;53.528;49.474;2022-08-01T04:15:35;43.80;;;18.13;;
65387;SDS011;51992;53.528;49.474;2022-08-01T04:18:01;47.75;;;15.63;;
65387;SDS011;51992;53.528;49.474;2022-08-01T04:20:27;41.20;;;16.50;;
65387;SDS011;51992;53.528;49.474;2022-08-01T04:22:52;45.30;;;21.00;;
65387;SDS011;51992;53.528;49.474;2022-08-01T04:25:23;113.72;;;27.95;;
65387;SDS011;51992;53.528;49.474;2022-08-01T04:27:50;33.33;;;15.40;;
65387;SDS011;51992;53.528;49.474;2022-08-01T04:30:19;51.80;;;21.92;;
65387;SDS011;51992;53.528;49.474;2022-08-01T04:32:46;96.50;;;32.13;;
65387;SDS011;51992;53.528;49.474;2022-08-01T04:35:12;61.03;;;27.65;;
65387;SDS011;51992;53.528;49.474;2022-08-01T04:37:42;55.42;;;26.80;;
65387;SDS011;51992;53.528;49.474;2022-08-01T04:40:08;91.70;;;40.50;;
65387;SDS011;51992;53.528;49.474;2022-08-01T04:42:34;80.25;;;36.35;;
65387;SDS011;51992;53.528;49.474;2022-08-01T04:45:00;67.20;;;31.33;;
65387;SDS011;51992;53.528;49.474;2022-08-01T04:47:26;47.47;;;22.75;;
65387;SDS011;51992;53.528;49.474;2022-08-01T04:49:52;22.95;;;11.48;;
65387;SDS011;51992;53.528;49.474;2022-08-01T04:52:18;26.02;;;10.15;;
65387;SDS011;51992;53.528;49.474;2022-08-01T04:54:44;39.13;;;10.90;;
65387;SDS011;51992;53.528;49.474;2022-08-01T04:57:12;28.92;;;9.93;;
65387;SDS011;51992;53.528;49.474;2022-08-01T04:59:38;28.83;;;8.93;;
65387;SDS011;51992;53.528;49.474;2022-08-01T05:02:10;27.45;;;9.60;;
65387;SDS011;51992;53.528;49.474;2022-08-01T05:04:36;31.90;;;9.35;;
65387;SDS011;51992;53.528;49.474;2022-08-01T05:07:02;130.55;;;18.00;;
65387;SDS011;51992;53.528;49.474;2022-08-01T05:09:28;23.92;;;10.63;;
65387;SDS011;51992;53.528;49.474;2022-08-01T05:11:54;21.52;;;10.80;;
65387;SDS011;51992;53.528;49.474;2022-08-01T05:14:19;35.22;;;11.90;;
65387;SDS011;51992;53.528;49.474;2022-08-01T05:16:46;28.25;;;15.45;;
65387;SDS011;51992;53.528;49.474;2022-08-01T05:19:12;21.48;;;10.60;;
65387;SDS011;51992;53.528;49.474;2022-08-01T05:21:37;30.58;;;11.23;;
65387;SDS011;51992;53.528;49.474;2022-08-01T05:24:04;33.25;;;14.35;;
65387;SDS011;51992;53.528;49.474;2022-08-01T05:26:30;83.47;;;17.73;;
65387;SDS011;51992;53.528;49.474;2022-08-01T05:28:55;20.92;;;11.57;;
65387;SDS011;51992;53.528;49.474;2022-08-01T05:31:21;32.63;;;12.68;;
65387;SDS011;51992;53.528;49.474;2022-08-01T05:33:47;20.25;;;9.35;;
65387;SDS011;51992;53.528;49.474;2022-08-01T05:36:13;27.20;;;9.55;;
65387;SDS011;51992;53.528;49.474;2022-08-01T05:38:39;20.92;;;9.75;;
65387;SDS011;51992;53.528;49.474;2022-08-01T05:41:05;35.25;;;12.20;;
65387;SDS011;51992;53.528;49.474;2022-08-01T05:43:31;52.38;;;14.45;;
65387;SDS011;51992;53.528;49.474;2022-08-01T05:45:56;41.03;;;14.13;;
65387;SDS011;51992;53.528;49.474;2022-08-01T05:48:23;32.55;;;11.98;;
65387;SDS011;51992;53.528;49.474;2022-08-01T05:50:49;28.35;;;14.75;;
65387;SDS011;51992;53.528;49.474;2022-08-01T05:53:16;20.13;;;11.38;;
65387;SDS011;51992;53.528;49.474;2022-08-01T05:55:41;26.67;;;9.27;;
65387;SDS011;51992;53.528;49.474;2022-08-01T05:58:07;47.35;;;9.60;;
65387;SDS011;51992;53.528;49.474;2022-08-01T06:00:33;16.55;;;8.15;;
65387;SDS011;51992;53.528;49.474;2022-08-01T06:02:59;20.00;;;9.30;;
65387;SDS011;51992;53.528;49.474;2022-08-01T06:05:25;38.95;;;9.35;;
65387;SDS011;51992;53.528;49.474;2022-08-01T06:07:50;15.23;;;9.50;;
65387;SDS011;51992;53.528;49.474;2022-08-01T06:10:16;11.13;;;6.60;;
65387;SDS011;51992;53.528;49.474;2022-08-01T06:12:42;34.38;;;10.05;;
65387;SDS011;51992;53.528;49.474;2022-08-01T06:15:08;18.33;;;9.68;;
65387;SDS011;51992;53.528;49.474;2022-08-01T06:17:34;19.85;;;8.52;;
65387;SDS011;51992;53.528;49.474;2022-08-01T06:20:00;17.77;;;7.32;;
65387;SDS011;51992;53.528;49.474;2022-08-01T06:22:26;17.25;;;8.52;;
65387;SDS011;51992;53.528;49.474;2022-08-01T06:24:51;16.70;;;7.47;;
65387;SDS011;51992;53.528;49.474;2022-08-01T06:27:17;13.90;;;7.95;;
65387;SDS011;51992;53.528;49.474;2022-08-01T06:29:43;10.60;;;7.60;;
65387;SDS011;51992;53.528;49.474;2022-08-01T06:32:09;10.55;;;7.32;;
65387;SDS011;51992;53.528;49.474;2022-08-01T06:34:35;54.50;;;11.57;;
65387;SDS011;51992;53.528;49.474;2022-08-01T06:37:01;60.75;;;9.40;;
65387;SDS011;51992;53.528;49.474;2022-08-01T06:39:27;27.35;;;9.13;;
65387;SDS011;51992;53.528;49.474;2022-08-01T06:41:52;15.27;;;9.38;;
65387;SDS011;51992;53.528;49.474;2022-08-01T06:44:18;38.35;;;10.77;;
65387;SDS011;51992;53.528;49.474;2022-08-01T06:46:44;10.77;;;8.55;;
65387;SDS011;51992;53.528;49.474;2022-08-01T06:49:10;14.30;;;9.27;;
65387;SDS011;51992;53.528;49.474;2022-08-01T06:51:35;22.08;;;10.93;;
65387;SDS011;51992;53.528;49.474;2022-08-01T06:54:01;27.55;;;10.82;;
65387;SDS011;51992;53.528;49.474;2022-08-01T06:56:27;18.02;;;9.48;;
65387;SDS011;51992;53.528;49.474;2022-08-01T06:58:53;17.95;;;9.95;;
65387;SDS011;51992;53.528;49.474;2022-08-01T07:01:21;28.30;;;13.18;;
65387;SDS011;51992;53.528;49.474;2022-08-01T07:03:47;27.70;;;11.95;;
65387;SDS011;51992;53.528;49.474;2022-08-01T07:06:13;27.05;;;11.02;;
65387;SDS011;51992;53.528;49.474;2022-08-01T07:08:40;36.60;;;11.27;;
65387;SDS011;51992;53.528;49.474;2022-08-01T07:11:06;43.13;;;11.43;;
65387;SDS011;51992;53.528;49.474;2022-08-01T07:13:31;68.20;;;12.27;;
65387;SDS011;51992;53.528;49.474;2022-08-01T07:15:57;22.52;;;10.40;;
65387;SDS011;51992;53.528;49.474;2022-08-01T07:18:23;43.78;;;12.43;;
65387;SDS011;51992;53.528;49.474;2022-08-01T07:20:49;36.15;;;12.35;;
65387;SDS011;51992;53.528;49.474;2022-08-01T07:23:15;41.67;;;19.20;;
65387;SDS011;51992;53.528;49.474;2022-08-01T07:25:41;28.80;;;13.20;;
65387;SDS011;51992;53.528;49.474;2022-08-01T07:28:07;48.03;;;16.08;;
65387;SDS011;51992;53.528;49.474;2022-08-01T07:30:33;74.63;;;23.92;;
65387;SDS011;51992;53.528;49.474;2022-08-01T07:32:59;83.15;;;29.45;;
65387;SDS011;51992;53.528;49.474;2022-08-01T07:35:24;35.15;;;13.13;;
65387;SDS011;51992;53.528;49.474;2022-08-01T07:37:50;22.20;;;9.10;;
65387;SDS011;51992;53.528;49.474;2022-08-01T07:40:18;13.65;;;7.50;;
65387;SDS011;51992;53.528;49.474;2022-08-01T07:42:44;33.95;;;8.82;;
65387;SDS011;51992;53.528;49.474;2022-08-01T07:45:10;24.23;;;7.75;;
65387;SDS011;51992;53.528;49.474;2022-08-01T07:47:36;24.77;;;9.15;;
65387;SDS011;51992;53.528;49.474;2022-08-01T07:50:03;38.20;;;10.27;;
65387;SDS011;51992;53.528;49.474;2022-08-01T07:52:29;17.85;;;7.93;;
65387;SDS011;51992;53.528;49.474;2022-08-01T07:54:55;13.50;;;8.43;;
65387;SDS011;51992;53.528;49.474;2022-08-01T07:57:22;36.97;;;12.07;;
65387;SDS011;51992;53.528;49.474;2022-08-01T07:59:48;23.00;;;12.82;;
65387;SDS011;51992;53.528;49.474;2022-08-01T08:02:14;30.05;;;10.55;;
65387;SDS011;51992;53.528;49.474;2022-08-01T08:04:40;20.17;;;10.82;;
65387;SDS011;51992;53.528;49.474;2022-08-01T08:07:06;11.80;;;8.18;;
65387;SDS011;51992;53.528;49.474;2022-08-01T08:09:31;17.55;;;8.30;;
65387;SDS011;51992;53.528;49.474;2022-08-01T08:11:57;21.27;;;10.85;;
65387;SDS011;51992;53.528;49.474;2022-08-01T08:14:23;54.75;;;22.65;;
65387;SDS011;51992;53.528;49.474;2022-08-01T08:16:49;55.83;;;20.92;;
65387;SDS011;51992;53.528;49.474;2022-08-01T08:19:15;57.92;;;26.83;;
65387;SDS011;51992;53.528;49.474;2022-08-01T08:21:41;54.25;;;21.40;;
65387;SDS011;51992;53.528;49.474;2022-08-01T08:24:07;47.30;;;18.00;;
65387;SDS011;51992;53.528;49.474;2022-08-01T08:26:46;51.08;;;22.42;;
65387;SDS011;51992;53.528;49.474;2022-08-01T08:29:12;49.63;;;20.50;;
65387;SDS011;51992;53.528;49.474;2022-08-01T08:31:37;19.27;;;9.50;;
65387;SDS011;51992;53.528;49.474;2022-08-01T08:34:03;19.65;;;8.95;;
65387;SDS011;51992;53.528;49.474;2022-08-01T08:36:29;20.08;;;8.60;;
65387;SDS011;51992;53.528;49.474;2022-08-01T08:38:54;37.63;;;10.02;;
65387;SDS011;51992;53.528;49.474;2022-08-01T08:41:21;14.50;;;7.93;;
65387;SDS011;51992;53.528;49.474;2022-08-01T08:43:47;12.40;;;7.30;;
65387;SDS011;51992;53.528;49.474;2022-08-01T08:46:13;18.30;;;7.47;;
65387;SDS011;51992;53.528;49.474;2022-08-01T08:48:39;19.05;;;8.30;;
65387;SDS011;51992;53.528;49.474;2022-08-01T08:51:05;14.65;;;7.68;;
65387;SDS011;51992;53.528;49.474;2022-08-01T08:53:33;26.05;;;11.90;;
65387;SDS011;51992;53.528;49.474;2022-08-01T08:56:02;37.25;;;11.48;;
65387;SDS011;51992;53.528;49.474;2022-08-01T08:58:27;27.40;;;9.93;;
65387;SDS011;51992;53.528;49.474;2022-08-01T09:00:53;8.80;;;6.47;;
65387;SDS011;51992;53.528;49.474;2022-08-01T09:03:19;10.75;;;6.63;;
65387;SDS011;51992;53.528;49.474;2022-08-01T09:05:45;35.55;;;9.38;;
65387;SDS011;51992;53.528;49.474;2022-08-01T09:08:11;11.95;;;6.55;;
65387;SDS011;51992;53.528;49.474;2022-08-01T09:10:40;11.45;;;7.43;;
65387;SDS011;51992;53.528;49.474;2022-08-01T09:15:39;9.50;;;6.38;;
65387;SDS011;51992;53.528;49.474;2022-08-01T09:18:05;10.23;;;7.07;;
65387;SDS011;51992;53.528;49.474;2022-08-01T09:20:31;15.68;;;7.28;;
65387;SDS011;51992;53.528;49.474;2022-08-01T09:22:59;16.65;;;7.80;;
65387;SDS011;51992;53.528;49.474;2022-08-01T09:25:25;23.67;;;9.32;;
65387;SDS011;51992;53.528;49.474;2022-08-01T09:28:04;29.80;;;10.60;;
65387;SDS011;51992;53.528;49.474;2022-08-01T09:30:36;40.95;;;11.32;;
65387;SDS011;51992;53.528;49.474;2022-08-01T09:33:03;14.43;;;7.32;;
65387;SDS011;51992;53.528;49.474;2022-08-01T09:35:35;24.20;;;8.07;;
65387;SDS011;51992;53.528;49.474;2022-08-01T09:38:18;15.43;;;7.30;;
65387;SDS011;51992;53.528;49.474;2022-08-01T09:40:51;10.13;;;6.53;;
65387;SDS011;51992;53.528;49.474;2022-08-01T09:43:18;25.50;;;7.22;;
65387;SDS011;51992;53.528;49.474;2022-08-01T09:45:44;25.70;;;7.35;;
65387;SDS011;51992;53.528;49.474;2022-08-01T09:48:10;10.68;;;6.60;;
65387;SDS011;51992;53.528;49.474;2022-08-01T09:50:46;76.32;;;11.48;;
65387;SDS011;51992;53.528;49.474;2022-08-01T09:53:13;13.73;;;6.78;;
65387;SDS011;51992;53.528;49.474;2022-08-01T09:55:40;6.50;;;5.88;;
65387;SDS011;51992;53.528;49.474;2022-08-01T09:58:06;9.10;;;6.28;;
65387;SDS011;51992;53.528;49.474;2022-08-01T10:00:32;10.55;;;5.82;;
65387;SDS011;51992;53.528;49.474;2022-08-01T10:02:59;17.30;;;6.35;;
65387;SDS011;51992;53.528;49.474;2022-08-01T10:05:31;15.73;;;6.70;;
65387;SDS011;51992;53.528;49.474;2022-08-01T10:07:58;11.30;;;6.15;;
65387;SDS011;51992;53.528;49.474;2022-08-01T10:10:25;23.70;;;7.80;;
65387;SDS011;51992;53.528;49.474;2022-08-01T10:12:51;30.83;;;7.72;;
65387;SDS011;51992;53.528;49.474;2022-08-01T10:15:17;14.23;;;6.85;;
65387;SDS011;51992;53.528;49.474;2022-08-01T10:17:51;17.50;;;7.78;;
65387;SDS011;51992;53.528;49.474;2022-08-01T10:20:19;12.20;;;7.25;;
65387;SDS011;51992;53.528;49.474;2022-08-01T10:22:45;24.52;;;10.70;;
65387;SDS011;51992;53.528;49.474;2022-08-01T10:25:11;19.10;;;6.80;;
65387;SDS011;51992;53.528;49.474;2022-08-01T10:27:38;23.13;;;11.65;;
65387;SDS011;51992;53.528;49.474;2022-08-01T10:30:04;28.05;;;13.48;;
65387;SDS011;51992;53.528;49.474;2022-08-01T10:32:31;30.80;;;13.88;;
65387;SDS011;51992;53.528;49.474;2022-08-01T10:35:01;22.60;;;9.52;;
65387;SDS011;51992;53.528;49.474;2022-08-01T10:37:27;17.67;;;9.00;;
65387;SDS011;51992;53.528;49.474;2022-08-01T10:39:54;36.17;;;14.68;;
65387;SDS011;51992;53.528;49.474;2022-08-01T10:42:20;67.32;;;22.50;;
65387;SDS011;51992;53.528;49.474;2022-08-01T10:44:46;29.60;;;12.70;;
65387;SDS011;51992;53.528;49.474;2022-08-01T10:47:13;24.10;;;10.18;;
65387;SDS011;51992;53.528;49.474;2022-08-01T10:49:45;239.30;;;21.33;;
65387;SDS011;51992;53.528;49.474;2022-08-01T10:52:16;24.42;;;10.68;;
65387;SDS011;51992;53.528;49.474;2022-08-01T10:54:42;22.25;;;10.05;;
65387;SDS011;51992;53.528;49.474;2022-08-01T10:57:08;17.67;;;9.77;;
65387;SDS011;51992;53.528;49.474;2022-08-01T10:59:36;24.60;;;9.63;;
65387;SDS011;51992;53.528;49.474;2022-08-01T11:02:12;37.42;;;12.25;;
65387;SDS011;51992;53.528;49.474;2022-08-01T11:07:23;29.38;;;10.55;;
65387;SDS011;51992;53.528;49.474;2022-08-01T11:10:42;50.47;;;13.57;;
65387;SDS011;51992;53.528;49.474;2022-08-01T11:12:48;34.05;;;16.25;;
65387;SDS011;51992;53.528;49.474;2022-08-01T11:17:45;17.67;;;8.23;;
65387;SDS011;51992;53.528;49.474;2022-08-01T11:20:18;22.40;;;8.10;;
65387;SDS011;51992;53.528;49.474;2022-08-01T11:26:05;21.90;;;10.63;;
65387;SDS011;51992;53.528;49.474;2022-08-01T11:30:41;38.45;;;13.70;;
65387;SDS011;51992;53.528;49.474;2022-08-01T11:33:07;45.08;;;14.30;;
65387;SDS011;51992;53.528;49.474;2022-08-01T11:35:34;28.45;;;11.18;;
65387;SDS011;51992;53.528;49.474;2022-08-01T11:40:44;20.23;;;7.80;;
65387;SDS011;51992;53.528;49.474;2022-08-01T11:45:52;13.23;;;7.53;;
65387;SDS011;51992;53.528;49.474;2022-08-01T11:48:21;27.13;;;9.25;;
65387;SDS011;51992;53.528;49.474;2022-08-01T11:50:49;64.32;;;10.43;;
65387;SDS011;51992;53.528;49.474;2022-08-01T11:53:15;14.63;;;6.35;;
65387;SDS011;51992;53.528;49.474;2022-08-01T11:55:51;13.50;;;6.60;;
65387;SDS011;51992;53.528;49.474;2022-08-01T11:58:24;17.35;;;6.60;;
65387;SDS011;51992;53.528;49.474;2022-08-01T12:00:51;16.38;;;7.30;;
65387;SDS011;51992;53.528;49.474;2022-08-01T12:03:22;60.42;;;15.80;;
65387;SDS011;51992;53.528;49.474;2022-08-01T12:05:48;41.90;;;15.27;;
65387;SDS011;51992;53.528;49.474;2022-08-01T12:08:13;39.50;;;14.70;;
65387;SDS011;51992;53.528;49.474;2022-08-01T12:10:49;42.90;;;13.43;;
65387;SDS011;51992;53.528;49.474;2022-08-01T12:13:15;56.58;;;22.58;;
65387;SDS011;51992;53.528;49.474;2022-08-01T12:15:41;56.08;;;23.23;;
65387;SDS011;51992;53.528;49.474;2022-08-01T12:18:06;53.97;;;20.35;;
65387;SDS011;51992;53.528;49.474;2022-08-01T12:20:33;46.22;;;19.60;;
65387;SDS011;51992;53.528;49.474;2022-08-01T12:23:00;45.33;;;16.58;;
65387;SDS011;51992;53.528;49.474;2022-08-01T12:25:26;61.55;;;20.95;;
65387;SDS011;51992;53.528;49.474;2022-08-01T12:27:52;37.22;;;15.95;;
65387;SDS011;51992;53.528;49.474;2022-08-01T12:30:19;45.65;;;17.60;;
65387;SDS011;51992;53.528;49.474;2022-08-01T12:32:45;62.33;;;26.33;;
65387;SDS011;51992;53.528;49.474;2022-08-01T12:35:21;62.63;;;22.73;;
65387;SDS011;51992;53.528;49.474;2022-08-01T12:37:51;71.68;;;23.33;;
65387;SDS011;51992;53.528;49.474;2022-08-01T12:40:24;47.80;;;19.23;;
65387;SDS011;51992;53.528;49.474;2022-08-01T12:42:52;56.50;;;21.05;;
65387;SDS011;51992;53.528;49.474;2022-08-01T12:45:19;61.05;;;22.33;;
65387;SDS011;51992;53.528;49.474;2022-08-01T12:47:45;39.40;;;16.85;;
65387;SDS011;51992;53.528;49.474;2022-08-01T12:50:12;18.55;;;10.43;;
65387;SDS011;51992;53.528;49.474;2022-08-01T12:52:38;21.50;;;8.85;;
65387;SDS011;51992;53.528;49.474;2022-08-01T12:55:06;24.10;;;8.43;;
65387;SDS011;51992;53.528;49.474;2022-08-01T12:57:36;106.75;;;12.15;;
65387;SDS011;51992;53.528;49.474;2022-08-01T13:00:09;15.27;;;7.53;;
65387;SDS011;51992;53.528;49.474;2022-08-01T13:02:35;15.88;;;6.57;;
65387;SDS011;51992;53.528;49.474;2022-08-01T13:05:01;10.93;;;6.40;;
65387;SDS011;51992;53.528;49.474;2022-08-01T13:07:37;12.55;;;6.88;;
65387;SDS011;51992;53.528;49.474;2022-08-01T13:10:03;29.63;;;9.15;;
65387;SDS011;51992;53.528;49.474;2022-08-01T13:12:30;17.58;;;7.15;;
65387;SDS011;51992;53.528;49.474;2022-08-01T13:14:56;18.80;;;7.10;;
65387;SDS011;51992;53.528;49.474;2022-08-01T13:17:31;12.10;;;6.25;;
65387;SDS011;51992;53.528;49.474;2022-08-01T13:19:57;20.20;;;8.63;;
65387;SDS011;51992;53.528;49.474;2022-08-01T13:22:31;28.55;;;6.05;;
65387;SDS011;51992;53.528;49.474;2022-08-01T13:25:09;10.63;;;6.47;;
65387;SDS011;51992;53.528;49.474;2022-08-01T13:27:34;25.88;;;8.02;;
65387;SDS011;51992;53.528;49.474;2022-08-01T13:30:10;11.93;;;6.55;;
65387;SDS011;51992;53.528;49.474;2022-08-01T13:32:35;24.08;;;8.77;;
65387;SDS011;51992;53.528;49.474;2022-08-01T13:35:02;22.58;;;8.18;;
65387;SDS011;51992;53.528;49.474;2022-08-01T13:37:28;13.80;;;6.43;;
65387;SDS011;51992;53.528;49.474;2022-08-01T13:39:57;14.40;;;5.70;;
65387;SDS011;51992;53.528;49.474;2022-08-01T13:42:22;31.40;;;6.65;;
65387;SDS011;51992;53.528;49.474;2022-08-01T13:44:48;12.00;;;5.70;;
65387;SDS011;51992;53.528;49.474;2022-08-01T13:47:14;28.95;;;6.28;;
65387;SDS011;51992;53.528;49.474;2022-08-01T13:49:40;66.57;;;11.80;;
65387;SDS011;51992;53.528;49.474;2022-08-01T13:52:05;25.42;;;7.88;;
65387;SDS011;51992;53.528;49.474;2022-08-01T13:54:31;20.00;;;8.05;;
65387;SDS011;51992;53.528;49.474;2022-08-01T13:56:57;21.92;;;8.15;;
65387;SDS011;51992;53.528;49.474;2022-08-01T13:59:23;11.60;;;6.63;;
65387;SDS011;51992;53.528;49.474;2022-08-01T14:01:49;44.63;;;10.40;;
65387;SDS011;51992;53.528;49.474;2022-08-01T14:04:14;54.80;;;15.70;;
65387;SDS011;51992;53.528;49.474;2022-08-01T14:06:40;28.65;;;10.85;;
65387;SDS011;51992;53.528;49.474;2022-08-01T14:09:06;50.90;;;12.10;;
65387;SDS011;51992;53.528;49.474;2022-08-01T14:11:32;37.97;;;15.20;;
65387;SDS011;51992;53.528;49.474;2022-08-01T14:13:58;27.38;;;10.70;;
65387;SDS011;51992;53.528;49.474;2022-08-01T14:16:23;25.38;;;8.18;;
65387;SDS011;51992;53.528;49.474;2022-08-01T14:18:49;17.73;;;7.78;;
65387;SDS011;51992;53.528;49.474;2022-08-01T14:21:15;9.52;;;5.00;;
65387;SDS011;51992;53.528;49.474;2022-08-01T14:23:41;9.35;;;5.50;;
65387;SDS011;51992;53.528;49.474;2022-08-01T14:26:10;18.48;;;6.18;;
65387;SDS011;51992;53.528;49.474;2022-08-01T14:28:36;16.52;;;6.32;;
65387;SDS011;51992;53.528;49.474;2022-08-01T14:31:01;37.08;;;11.07;;
65387;SDS011;51992;53.528;49.474;2022-08-01T14:33:27;22.00;;;8.88;;
65387;SDS011;51992;53.528;49.474;2022-08-01T14:35:53;14.00;;;5.78;;
65387;SDS011;51992;53.528;49.474;2022-08-01T14:38:19;13.50;;;6.10;;
65387;SDS011;51992;53.528;49.474;2022-08-01T14:40:44;116.50;;;14.63;;
65387;SDS011;51992;53.528;49.474;2022-08-01T14:43:12;18.00;;;6.05;;
65387;SDS011;51992;53.528;49.474;2022-08-01T14:45:38;61.63;;;9.05;;
65387;SDS011;51992;53.528;49.474;2022-08-01T14:48:04;12.40;;;4.55;;